createdAt,value
2023-09-06T00:01:55.709Z,97253.91
2023-09-06T00:03:57.702Z,97249.66
2023-09-06T00:05:59.757Z,97253.91
2023-09-06T00:08:05.137Z,97247.13
2023-09-06T00:10:06.948Z,97251.06
2023-09-06T00:12:08.694Z,97237.66
2023-09-06T00:14:10.294Z,97236.53
2023-09-06T00:16:12.210Z,97237.44
2023-09-06T00:18:13.710Z,97236.13
2023-09-06T00:20:21.577Z,97240.47
2023-09-06T00:22:23.250Z,97242.41
2023-09-06T00:24:24.859Z,97245.16
2023-09-06T00:26:27.868Z,97238.06
2023-09-06T00:28:29.985Z,97236.00
2023-09-06T00:30:32.148Z,97248.59
2023-09-06T00:32:35.022Z,97231.06
2023-09-06T00:34:36.599Z,97238.56
2023-09-06T00:36:38.268Z,97238.25
2023-09-06T00:38:40.366Z,97239.44
2023-09-06T00:40:43.094Z,97239.28
2023-09-06T00:42:49.185Z,97235.06
2023-09-06T00:44:51.353Z,97237.88
2023-09-06T00:46:53.507Z,97228.53
2023-09-06T00:48:56.308Z,97233.00
2023-09-06T00:50:58.341Z,97237.13
2023-09-06T00:53:00.158Z,97230.81
2023-09-06T00:55:02.376Z,97232.09
2023-09-06T00:57:04.021Z,97229.06
2023-09-06T00:59:05.625Z,97235.94
2023-09-06T01:01:07.364Z,97238.34
2023-09-06T01:03:09.438Z,97230.78
2023-09-06T01:05:11.631Z,97233.16
2023-09-06T01:07:14.121Z,97229.50
2023-09-06T01:09:15.823Z,97232.59
2023-09-06T01:11:22.611Z,97228.91
2023-09-06T01:13:24.596Z,97234.28
2023-09-06T01:15:27.351Z,97230.44
2023-09-06T01:17:29.558Z,97233.75
2023-09-06T01:19:32.419Z,97231.56
2023-09-06T01:21:39.552Z,97239.63
2023-09-06T01:23:44.016Z,97228.31
2023-09-06T01:25:46.352Z,97231.88
2023-09-06T01:27:48.374Z,97238.56
2023-09-06T01:29:50.162Z,97238.56
2023-09-06T01:31:51.866Z,97233.09
2023-09-06T01:33:53.750Z,97228.41
2023-09-06T01:35:56.138Z,97226.94
2023-09-06T01:37:58.042Z,97221.56
2023-09-06T01:39:59.683Z,97223.59
2023-09-06T01:42:01.304Z,97221.41
2023-09-06T01:44:03.076Z,97220.31
2023-09-06T01:46:06.427Z,97220.47
2023-09-06T01:48:08.256Z,97216.53
2023-09-06T01:50:10.053Z,97214.00
2023-09-06T01:52:11.842Z,97220.94
2023-09-06T01:54:14.246Z,97212.13
2023-09-06T01:56:15.854Z,97211.00
2023-09-06T01:58:18.793Z,97213.38
2023-09-06T02:00:23.462Z,97206.41
2023-09-06T02:02:24.982Z,97208.53
2023-09-06T02:04:26.605Z,97205.47
2023-09-06T02:06:28.168Z,97203.75
2023-09-06T02:08:30.563Z,97205.03
2023-09-06T02:10:32.523Z,97200.63
2023-09-06T02:12:34.551Z,97200.16
2023-09-06T02:14:36.102Z,97203.44
2023-09-06T02:16:38.765Z,97198.59
2023-09-06T02:18:40.668Z,97204.25
2023-09-06T02:20:44.610Z,97201.44
2023-09-06T02:22:52.766Z,97199.47
2023-09-06T02:24:54.709Z,97201.16
2023-09-06T02:26:56.336Z,97189.59
2023-09-06T02:28:58.088Z,97190.78
2023-09-06T02:31:00.684Z,97196.22
2023-09-06T02:33:02.252Z,97190.84
2023-09-06T02:35:04.257Z,97194.19
2023-09-06T02:37:06.669Z,97190.78
2023-09-06T02:39:08.234Z,97189.66
2023-09-06T02:41:09.741Z,97200.88
2023-09-06T02:43:15.963Z,97186.03
2023-09-06T02:45:18.508Z,97190.94
2023-09-06T02:47:26.457Z,97184.34
2023-09-06T02:49:28.487Z,97186.66
2023-09-06T02:51:31.284Z,97189.72
2023-09-06T02:53:34.700Z,97186.59
2023-09-06T02:55:36.800Z,97188.22
2023-09-06T02:57:39.040Z,97183.25
2023-09-06T02:59:41.076Z,97190.66
2023-09-06T03:01:46.499Z,97190.56
2023-09-06T03:03:52.812Z,97192.44
2023-09-06T03:05:59.694Z,97193.56
2023-09-06T03:08:03.621Z,97193.81
2023-09-06T03:10:09.269Z,97200.19
2023-09-06T03:12:13.886Z,97199.53
2023-09-06T03:14:21.771Z,97210.34
2023-09-06T03:16:23.740Z,97213.75
2023-09-06T03:18:25.481Z,97216.19
2023-09-06T03:20:33.993Z,97220.31
2023-09-06T03:22:38.840Z,97227.06
2023-09-06T03:24:41.784Z,97219.38
2023-09-06T03:26:45.230Z,97224.00
2023-09-06T03:28:48.626Z,97225.53
2023-09-06T03:30:53.283Z,97219.66
2023-09-06T03:32:56.316Z,97230.13
2023-09-06T03:34:58.141Z,97221.91
2023-09-06T03:36:59.688Z,97227.41
2023-09-06T03:39:02.032Z,97228.41
2023-09-06T03:41:04.244Z,97232.41
2023-09-06T03:43:16.749Z,97226.50
2023-09-06T03:45:22.461Z,97228.72
2023-09-06T03:47:24.252Z,97225.53
2023-09-06T03:49:29.777Z,97219.34
2023-09-06T03:51:33.925Z,97226.38
2023-09-06T03:53:39.180Z,97223.34
2023-09-06T03:55:43.582Z,97236.22
2023-09-06T03:57:46.090Z,97230.41
2023-09-06T03:59:48.601Z,97224.28
2023-09-06T04:01:50.323Z,97229.38
2023-09-06T04:03:52.353Z,97227.72
2023-09-06T04:05:56.029Z,97232.97
2023-09-06T04:08:00.281Z,97234.09
2023-09-06T04:10:03.957Z,97225.25
2023-09-06T04:12:07.168Z,97235.75
2023-09-06T04:14:10.361Z,97236.78
2023-09-06T04:16:12.172Z,97238.59
2023-09-06T04:18:15.948Z,97232.19
2023-09-06T04:20:21.632Z,97236.72
2023-09-06T04:22:23.257Z,97235.63
2023-09-06T04:24:24.835Z,97236.00
2023-09-06T04:26:27.677Z,97238.47
2023-09-06T04:28:31.274Z,97239.66
2023-09-06T04:30:36.879Z,97245.09
2023-09-06T04:32:38.751Z,97245.91
2023-09-06T04:34:41.143Z,97242.03
2023-09-06T04:36:42.825Z,97239.63
2023-09-06T04:38:45.135Z,97244.16
2023-09-06T04:40:48.188Z,97258.34
2023-09-06T04:42:52.555Z,97246.75
2023-09-06T04:44:54.357Z,97243.75
2023-09-06T04:46:56.160Z,97253.44
2023-09-06T04:48:59.033Z,97252.75
2023-09-06T04:51:00.936Z,97250.50
2023-09-06T04:53:03.508Z,97252.75
2023-09-06T04:55:11.796Z,97251.22
2023-09-06T04:57:13.728Z,97243.88
2023-09-06T04:59:15.780Z,97241.56
2023-09-06T05:01:18.176Z,97245.84
2023-09-06T05:03:24.627Z,97249.84
2023-09-06T05:05:31.391Z,97252.63
2023-09-06T05:07:34.600Z,97255.44
2023-09-06T05:09:37.882Z,97262.38
2023-09-06T05:11:39.906Z,97264.28
2023-09-06T05:13:41.731Z,97261.06
2023-09-06T05:15:43.387Z,97259.06
2023-09-06T05:17:46.254Z,97263.84
2023-09-06T05:19:55.477Z,97272.31
2023-09-06T05:21:57.111Z,97271.38
2023-09-06T05:23:58.794Z,97266.25
2023-09-06T05:26:00.401Z,97278.81
2023-09-06T05:28:10.347Z,97283.50
2023-09-06T05:30:13.839Z,97281.28
2023-09-06T05:32:20.051Z,97286.38
2023-09-06T05:34:23.156Z,97287.09
2023-09-06T05:36:24.816Z,97283.50
2023-09-06T05:38:26.726Z,97283.00
2023-09-06T05:40:30.849Z,97282.41
2023-09-06T05:42:32.965Z,97281.38
2023-09-06T05:44:34.502Z,97282.72
2023-09-06T05:46:37.176Z,97279.28
2023-09-06T05:48:43.973Z,97291.06
2023-09-06T05:50:46.502Z,97286.59
2023-09-06T05:52:49.257Z,97286.44
2023-09-06T05:54:52.353Z,97295.13
2023-09-06T05:56:55.106Z,97287.88
2023-09-06T05:58:57.131Z,97293.84
2023-09-06T06:00:58.665Z,97290.88
2023-09-06T06:03:03.221Z,97291.06
2023-09-06T06:05:05.116Z,97292.44
2023-09-06T06:07:07.551Z,97297.97
2023-09-06T06:09:12.575Z,97299.91
2023-09-06T06:11:14.518Z,97293.13
2023-09-06T06:13:16.104Z,97301.44
2023-09-06T06:15:17.758Z,97302.59
2023-09-06T06:17:19.546Z,97301.56
2023-09-06T06:19:21.231Z,97300.34
2023-09-06T06:21:24.243Z,97307.28
2023-09-06T06:23:26.171Z,97304.16
2023-09-06T06:25:28.306Z,97300.69
2023-09-06T06:27:30.120Z,97307.06
2023-09-06T06:29:31.961Z,97305.34
2023-09-06T06:31:33.661Z,97303.19
2023-09-06T06:33:36.337Z,97309.19
2023-09-06T06:35:39.334Z,97307.75
2023-09-06T06:37:40.914Z,97304.25
2023-09-06T06:39:43.284Z,97312.50
2023-09-06T06:41:45.360Z,97314.22
2023-09-06T06:43:50.547Z,97317.53
2023-09-06T06:45:54.383Z,97315.22
2023-09-06T06:47:56.161Z,97320.41
2023-09-06T06:50:04.066Z,97316.31
2023-09-06T06:52:07.069Z,97323.44
2023-09-06T06:54:10.275Z,97320.78
2023-09-06T06:56:11.965Z,97319.34
2023-09-06T06:58:15.244Z,97326.75
2023-09-06T07:00:18.857Z,97326.63
2023-09-06T07:02:20.628Z,97324.72
2023-09-06T07:04:22.132Z,97328.06
2023-09-06T07:06:24.243Z,97331.00
2023-09-06T07:08:27.704Z,97328.31
2023-09-06T07:10:31.020Z,97330.28
2023-09-06T07:12:32.608Z,97334.22
2023-09-06T07:14:34.270Z,97335.72
2023-09-06T07:16:37.029Z,97326.41
2023-09-06T07:18:38.629Z,97323.34
2023-09-06T07:20:40.232Z,97330.00
2023-09-06T07:22:42.003Z,97334.38
2023-09-06T07:24:44.027Z,97327.63
2023-09-06T07:26:45.539Z,97340.22
2023-09-06T07:28:47.886Z,97336.31
2023-09-06T07:30:50.110Z,97341.16
2023-09-06T07:32:51.808Z,97339.34
2023-09-06T07:34:53.488Z,97339.09
2023-09-06T07:36:55.025Z,97346.16
2023-09-06T07:38:58.347Z,97346.69
2023-09-06T07:41:06.389Z,97354.41
2023-09-06T07:43:08.489Z,97352.19
2023-09-06T07:45:11.359Z,97359.00
2023-09-06T07:47:13.337Z,97356.53
2023-09-06T07:49:18.266Z,97358.84
2023-09-06T07:51:20.409Z,97353.78
2023-09-06T07:53:22.314Z,97353.34
2023-09-06T07:55:23.981Z,97354.25
2023-09-06T07:57:25.486Z,97364.31
2023-09-06T07:59:27.583Z,97359.34
2023-09-06T08:01:29.610Z,97351.00
2023-09-06T08:03:31.564Z,97366.00
2023-09-06T08:05:34.078Z,97362.44
2023-09-06T08:07:36.545Z,97364.03
2023-09-06T08:09:39.158Z,97365.06
2023-09-06T08:11:40.796Z,97361.38
2023-09-06T08:13:42.956Z,97365.03
2023-09-06T08:15:45.842Z,97366.63
2023-09-06T08:17:48.546Z,97358.00
2023-09-06T08:19:50.253Z,97368.69
2023-09-06T08:21:51.780Z,97367.31
2023-09-06T08:23:54.007Z,97369.97
2023-09-06T08:25:57.112Z,97374.34
2023-09-06T08:27:58.857Z,97372.34
2023-09-06T08:30:00.585Z,97380.19
2023-09-06T08:32:02.426Z,97372.44
2023-09-06T08:34:04.409Z,97371.75
2023-09-06T08:36:08.600Z,97376.34
2023-09-06T08:38:13.452Z,97384.53
2023-09-06T08:40:17.058Z,97378.09
2023-09-06T08:42:22.130Z,97381.13
2023-09-06T08:44:25.378Z,97384.44
2023-09-06T08:46:34.467Z,97379.16
2023-09-06T08:48:38.341Z,97380.94
2023-09-06T08:50:41.669Z,97378.53
2023-09-06T08:52:45.399Z,97388.03
2023-09-06T08:54:47.510Z,97386.78
2023-09-06T08:56:49.886Z,97381.13
2023-09-06T08:58:52.063Z,97388.50
2023-09-06T09:00:54.533Z,97378.28
2023-09-06T09:02:56.355Z,97382.41
2023-09-06T09:05:09.552Z,97382.66
2023-09-06T09:07:19.695Z,97380.97
2023-09-06T09:09:21.376Z,97376.53
2023-09-06T09:11:23.178Z,97378.59
2023-09-06T09:13:24.753Z,97388.94
2023-09-06T09:15:27.205Z,97385.63
2023-09-06T09:17:29.572Z,97383.66
2023-09-06T09:19:31.139Z,97387.53
2023-09-06T09:21:32.878Z,97384.09
2023-09-06T09:23:43.493Z,97386.69
2023-09-06T09:25:51.661Z,97388.44
2023-09-06T09:27:58.949Z,97383.13
2023-09-06T09:30:04.500Z,97393.22
2023-09-06T09:32:07.025Z,97391.72
2023-09-06T09:34:08.629Z,97392.47
2023-09-06T09:36:10.640Z,97386.84
2023-09-06T09:38:12.669Z,97396.34
2023-09-06T09:40:18.616Z,97401.31
2023-09-06T09:42:20.670Z,97396.88
2023-09-06T09:44:22.292Z,97401.00
2023-09-06T09:46:28.746Z,97395.97
2023-09-06T09:48:31.496Z,97394.53
2023-09-06T09:50:34.804Z,97400.13
2023-09-06T09:52:38.692Z,97385.44
2023-09-06T09:54:43.364Z,97377.88
2023-09-06T09:56:59.024Z,97386.91
2023-09-06T09:59:04.116Z,97382.59
2023-09-06T10:01:06.828Z,97388.59
2023-09-06T10:03:10.384Z,97385.50
2023-09-06T10:05:17.884Z,97380.72
2023-09-06T10:07:20.879Z,97378.69
2023-09-06T10:09:23.378Z,97377.06
2023-09-06T10:11:26.866Z,97378.38
2023-09-06T10:13:29.655Z,97374.75
2023-09-06T10:15:31.454Z,97370.06
2023-09-06T10:17:33.186Z,97364.66
2023-09-06T10:19:48.489Z,97368.66
2023-09-06T10:21:55.889Z,97368.94
2023-09-06T10:23:57.391Z,97381.16
2023-09-06T10:26:01.564Z,97367.88
2023-09-06T10:28:04.558Z,97370.19
2023-09-06T10:30:07.630Z,97374.38
2023-09-06T10:32:09.490Z,97369.25
2023-09-06T10:34:12.538Z,97371.66
2023-09-06T10:36:15.200Z,97358.31
2023-09-06T10:38:17.073Z,97364.75
2023-09-06T10:40:20.028Z,97367.31
2023-09-06T10:42:22.193Z,97361.31
2023-09-06T10:44:24.646Z,97359.38
2023-09-06T10:46:28.264Z,97361.88
2023-09-06T10:48:31.171Z,97365.19
2023-09-06T10:50:33.175Z,97359.66
2023-09-06T10:52:45.301Z,97356.75
2023-09-06T10:54:47.873Z,97361.88
2023-09-06T10:57:02.763Z,97355.16
2023-09-06T10:59:05.867Z,97364.19
2023-09-06T11:01:17.364Z,97357.19
2023-09-06T11:03:20.416Z,97356.97
2023-09-06T11:05:36.666Z,97359.06
2023-09-06T11:07:50.581Z,97357.31
2023-09-06T11:09:54.290Z,97344.72
2023-09-06T11:11:56.012Z,97345.41
2023-09-06T11:14:01.944Z,97350.56
2023-09-06T11:16:04.976Z,97350.66
2023-09-06T11:18:07.692Z,97344.97
2023-09-06T11:20:14.234Z,97352.91
2023-09-06T11:22:17.544Z,97347.41
2023-09-06T11:24:32.709Z,97346.38
2023-09-06T11:26:38.201Z,97340.28
2023-09-06T11:28:43.302Z,97338.44
2023-09-06T11:30:50.604Z,97346.84
2023-09-06T11:32:53.437Z,97345.88
2023-09-06T11:34:55.247Z,97343.41
2023-09-06T11:36:58.007Z,97339.25
2023-09-06T11:39:16.808Z,97341.91
2023-09-06T11:41:18.609Z,97338.66
2023-09-06T11:43:24.172Z,97349.22
2023-09-06T11:45:27.959Z,97343.78
2023-09-06T11:47:31.895Z,97331.28
2023-09-06T11:49:40.608Z,97340.50
2023-09-06T11:51:44.610Z,97332.06
2023-09-06T11:53:55.365Z,97334.53
2023-09-06T11:56:00.682Z,97347.34
2023-09-06T11:58:02.401Z,97338.06
2023-09-06T12:00:21.244Z,97338.75
2023-09-06T12:02:27.198Z,97339.13
2023-09-06T12:04:30.979Z,97330.88
2023-09-06T12:06:33.684Z,97336.44
2023-09-06T12:08:35.808Z,97328.88
2023-09-06T12:10:39.856Z,97332.88
2023-09-06T12:12:43.339Z,97326.59
2023-09-06T12:14:45.319Z,97323.97
2023-09-06T12:16:46.888Z,97314.50
2023-09-06T12:18:48.533Z,97320.06
2023-09-06T12:20:50.807Z,97315.34
2023-09-06T12:22:53.776Z,97318.81
2023-09-06T12:24:56.353Z,97316.28
2023-09-06T12:26:59.288Z,97317.50
2023-09-06T12:29:02.461Z,97305.69
2023-09-06T12:31:16.477Z,97314.84
2023-09-06T12:33:19.361Z,97300.19
2023-09-06T12:35:21.509Z,97300.84
2023-09-06T12:37:23.358Z,97296.38
2023-09-06T12:39:24.989Z,97294.72
2023-09-06T12:41:26.508Z,97291.34
2023-09-06T12:43:28.102Z,97293.06
2023-09-06T12:45:31.829Z,97294.13
2023-09-06T12:47:33.453Z,97294.28
2023-09-06T12:49:35.114Z,97293.16
2023-09-06T12:51:38.500Z,97291.44
2023-09-06T12:53:40.942Z,97284.44
2023-09-06T12:55:42.631Z,97286.56
2023-09-06T12:57:45.238Z,97273.88
2023-09-06T12:59:46.780Z,97278.72
2023-09-06T13:01:50.670Z,97280.25
2023-09-06T13:03:53.020Z,97273.28
2023-09-06T13:05:56.682Z,97274.66
2023-09-06T13:08:00.631Z,97263.31
2023-09-06T13:10:02.832Z,97275.44
2023-09-06T13:12:04.666Z,97271.59
2023-09-06T13:14:06.957Z,97272.41
2023-09-06T13:16:08.933Z,97271.22
2023-09-06T13:18:10.740Z,97271.88
2023-09-06T13:20:12.477Z,97268.38
2023-09-06T13:22:14.276Z,97266.50
2023-09-06T13:24:17.385Z,97267.22
2023-09-06T13:26:19.041Z,97267.19
2023-09-06T13:28:21.071Z,97264.34
2023-09-06T13:30:22.734Z,97265.13
2023-09-06T13:32:26.468Z,97257.56
2023-09-06T13:34:28.274Z,97260.16
2023-09-06T13:36:31.803Z,97261.53
2023-09-06T13:38:33.590Z,97251.88
2023-09-06T13:40:35.750Z,97249.38
2023-09-06T13:42:38.781Z,97237.13
2023-09-06T13:44:40.420Z,97241.63
2023-09-06T13:46:42.478Z,97232.38
2023-09-06T13:48:44.285Z,97248.66
2023-09-06T13:50:46.388Z,97246.28
2023-09-06T13:52:47.979Z,97239.84
2023-09-06T13:54:49.533Z,97242.13
2023-09-06T13:56:51.200Z,97246.03
2023-09-06T13:58:54.041Z,97242.28
2023-09-06T14:00:56.903Z,97240.72
2023-09-06T14:02:58.738Z,97241.34
2023-09-06T14:05:03.938Z,97233.31
2023-09-06T14:07:05.569Z,97225.47
2023-09-06T14:09:09.305Z,97226.31
2023-09-06T14:11:11.054Z,97230.28
2023-09-06T14:13:12.686Z,97224.06
2023-09-06T14:15:14.362Z,97218.69
2023-09-06T14:17:16.147Z,97220.84
2023-09-06T14:19:18.964Z,97224.28
2023-09-06T14:21:21.846Z,97227.84
2023-09-06T14:23:24.938Z,97206.34
2023-09-06T14:25:26.529Z,97217.97
2023-09-06T14:27:27.973Z,97216.69
2023-09-06T14:29:29.818Z,97212.78
2023-09-06T14:31:31.502Z,97216.63
2023-09-06T14:33:33.410Z,97216.91
2023-09-06T14:35:46.594Z,97215.25
2023-09-06T14:37:48.136Z,97214.22
2023-09-06T14:39:49.724Z,97221.47
2023-09-06T14:41:51.554Z,97220.94
2023-09-06T14:43:55.134Z,97221.31
2023-09-06T14:46:04.407Z,97215.66
2023-09-06T14:48:07.387Z,97216.50
2023-09-06T14:50:09.210Z,97211.16
2023-09-06T14:52:11.253Z,97211.16
2023-09-06T14:54:12.973Z,97207.94
2023-09-06T14:56:16.148Z,97202.41
2023-09-06T14:58:17.855Z,97208.97
2023-09-06T15:00:20.291Z,97204.41
2023-09-06T15:02:23.144Z,97200.53
2023-09-06T15:04:24.972Z,97210.28
2023-09-06T15:06:31.577Z,97205.53
2023-09-06T15:08:42.274Z,97203.72
2023-09-06T15:10:45.137Z,97212.31
2023-09-06T15:12:46.952Z,97205.72
2023-09-06T15:14:48.581Z,97212.22
2023-09-06T15:16:50.476Z,97209.38
2023-09-06T15:18:52.286Z,97211.75
2023-09-06T15:20:54.949Z,97215.06
2023-09-06T15:22:56.536Z,97207.00
2023-09-06T15:24:58.274Z,97210.03
2023-09-06T15:27:00.328Z,97205.28
2023-09-06T15:29:01.924Z,97200.09
2023-09-06T15:31:03.553Z,97206.19
2023-09-06T15:33:05.303Z,97204.03
2023-09-06T15:35:08.748Z,97203.00
2023-09-06T15:37:10.809Z,97204.00
2023-09-06T15:39:12.519Z,97211.19
2023-09-06T15:41:18.348Z,97207.97
2023-09-06T15:43:20.421Z,97207.94
2023-09-06T15:45:22.004Z,97199.84
2023-09-06T15:47:23.618Z,97204.22
2023-09-06T15:49:25.809Z,97207.50
2023-09-06T15:51:27.574Z,97206.47
2023-09-06T15:53:29.280Z,97201.88
2023-09-06T15:55:33.472Z,97202.03
2023-09-06T15:57:35.107Z,97194.41
2023-09-06T15:59:36.713Z,97193.31
2023-09-06T16:01:38.948Z,97189.84
2023-09-06T16:03:40.803Z,97177.66
2023-09-06T16:05:42.479Z,97180.50
2023-09-06T16:07:44.119Z,97182.56
2023-09-06T16:09:45.589Z,97180.78
2023-09-06T16:11:55.263Z,97179.56
2023-09-06T16:13:57.520Z,97182.28
2023-09-06T16:15:59.047Z,97180.91
2023-09-06T16:18:00.686Z,97179.69
2023-09-06T16:20:02.652Z,97174.41
2023-09-06T16:22:05.591Z,97174.09
2023-09-06T16:24:07.563Z,97172.03
2023-09-06T16:26:10.663Z,97170.13
2023-09-06T16:28:12.224Z,97169.59
2023-09-06T16:30:14.688Z,97167.69
2023-09-06T16:32:16.752Z,97174.34
2023-09-06T16:34:18.572Z,97172.47
2023-09-06T16:36:20.146Z,97168.06
2023-09-06T16:38:21.739Z,97168.63
2023-09-06T16:40:24.745Z,97169.56
2023-09-06T16:42:26.381Z,97167.41
2023-09-06T16:44:28.845Z,97161.38
2023-09-06T16:46:30.554Z,97165.69
2023-09-06T16:48:33.429Z,97165.50
2023-09-06T16:50:35.676Z,97163.56
2023-09-06T16:52:38.776Z,97160.09
2023-09-06T16:54:40.802Z,97160.28
2023-09-06T16:56:42.364Z,97161.13
2023-09-06T16:58:44.069Z,97159.97
2023-09-06T17:00:45.636Z,97160.25
2023-09-06T17:02:48.022Z,97162.13
2023-09-06T17:04:49.582Z,97160.34
2023-09-06T17:06:51.097Z,97164.28
2023-09-06T17:08:52.666Z,97155.44
2023-09-06T17:10:54.244Z,97161.13
2023-09-06T17:12:55.801Z,97152.78
2023-09-06T17:14:57.391Z,97155.72
2023-09-06T17:16:59.192Z,97151.31
2023-09-06T17:19:17.409Z,97156.44
2023-09-06T17:21:19.101Z,97152.50
2023-09-06T17:23:20.719Z,97149.69
2023-09-06T17:25:22.440Z,97146.44
2023-09-06T17:27:24.364Z,97145.94
2023-09-06T17:29:25.927Z,97146.41
2023-09-06T17:31:27.950Z,97144.06
2023-09-06T17:33:30.389Z,97140.63
2023-09-06T17:35:33.971Z,97132.41
2023-09-06T17:37:38.262Z,97147.56
2023-09-06T17:39:41.801Z,97144.34
2023-09-06T17:41:43.699Z,97136.91
2023-09-06T17:43:45.205Z,97142.69
2023-09-06T17:45:47.909Z,97138.00
2023-09-06T17:47:49.704Z,97141.75
2023-09-06T17:49:51.934Z,97142.16
2023-09-06T17:51:54.264Z,97145.63
2023-09-06T17:53:55.941Z,97148.75
2023-09-06T17:56:08.774Z,97149.63
2023-09-06T17:58:10.822Z,97156.47
2023-09-06T18:00:16.894Z,97151.38
2023-09-06T18:02:20.565Z,97146.75
2023-09-06T18:04:23.811Z,97148.66
2023-09-06T18:06:26.591Z,97159.56
2023-09-06T18:08:29.897Z,97150.66
2023-09-06T18:10:33.594Z,97155.72
2023-09-06T18:12:35.466Z,97164.19
2023-09-06T18:14:38.100Z,97158.84
2023-09-06T18:16:43.241Z,97157.19
2023-09-06T18:18:45.665Z,97153.31
2023-09-06T18:20:47.316Z,97158.38
2023-09-06T18:22:49.336Z,97148.31
2023-09-06T18:24:51.660Z,97148.72
2023-09-06T18:27:05.952Z,97156.72
2023-09-06T18:29:11.236Z,97156.91
2023-09-06T18:31:15.639Z,97152.16
2023-09-06T18:33:20.627Z,97150.88
2023-09-06T18:35:22.540Z,97154.31
2023-09-06T18:37:24.114Z,97158.03
2023-09-06T18:39:25.736Z,97157.38
2023-09-06T18:41:27.579Z,97157.03
2023-09-06T18:43:29.811Z,97160.19
2023-09-06T18:45:31.505Z,97162.72
2023-09-06T18:47:33.338Z,97162.03
2023-09-06T18:49:38.079Z,97162.16
2023-09-06T18:51:39.690Z,97153.97
2023-09-06T18:53:41.398Z,97157.41
2023-09-06T18:55:45.953Z,97162.34
2023-09-06T18:57:59.682Z,97158.63
2023-09-06T19:00:11.008Z,97159.38
2023-09-06T19:02:12.780Z,97158.34
2023-09-06T19:04:14.750Z,97162.53
2023-09-06T19:06:16.484Z,97159.97
2023-09-06T19:08:18.555Z,97168.41
2023-09-06T19:10:20.090Z,97166.38
2023-09-06T19:12:21.812Z,97164.41
2023-09-06T19:14:23.458Z,97172.81
2023-09-06T19:16:26.035Z,97169.78
2023-09-06T19:18:27.842Z,97174.06
2023-09-06T19:20:29.798Z,97176.50
2023-09-06T19:22:31.754Z,97172.88
2023-09-06T19:24:34.391Z,97174.91
2023-09-06T19:26:36.102Z,97175.38
2023-09-06T19:28:37.707Z,97175.47
2023-09-06T19:30:39.643Z,97172.56
2023-09-06T19:32:41.329Z,97174.94
2023-09-06T19:34:48.160Z,97173.81
2023-09-06T19:36:49.724Z,97172.81
2023-09-06T19:38:53.061Z,97173.22
2023-09-06T19:40:55.986Z,97172.50
2023-09-06T19:42:57.604Z,97173.75
2023-09-06T19:45:02.577Z,97175.44
2023-09-06T19:47:05.641Z,97180.31
2023-09-06T19:49:07.649Z,97173.91
2023-09-06T19:51:09.466Z,97174.84
2023-09-06T19:53:11.122Z,97183.53
2023-09-06T19:55:12.961Z,97180.81
2023-09-06T19:57:16.676Z,97178.19
2023-09-06T19:59:19.237Z,97175.75
2023-09-06T20:01:21.890Z,97175.00
2023-09-06T20:03:24.049Z,97170.91
2023-09-06T20:05:25.917Z,97172.13
2023-09-06T20:07:30.454Z,97177.41
2023-09-06T20:09:32.616Z,97177.03
2023-09-06T20:11:34.559Z,97169.59
2023-09-06T20:13:36.265Z,97175.03
2023-09-06T20:15:37.852Z,97174.44
2023-09-06T20:17:39.941Z,97184.19
2023-09-06T20:19:41.551Z,97174.09
2023-09-06T20:21:43.053Z,97175.91
2023-09-06T20:23:45.045Z,97172.69
2023-09-06T20:25:46.664Z,97167.75
2023-09-06T20:27:48.256Z,97181.88
2023-09-06T20:29:50.267Z,97171.53
2023-09-06T20:31:51.913Z,97176.38
2023-09-06T20:33:53.544Z,97181.97
2023-09-06T20:35:58.469Z,97179.41
2023-09-06T20:38:00.255Z,97174.38
2023-09-06T20:40:01.857Z,97175.41
2023-09-06T20:42:06.229Z,97184.31
2023-09-06T20:44:08.074Z,97181.13
2023-09-06T20:46:10.199Z,97185.09
2023-09-06T20:48:12.764Z,97183.44
2023-09-06T20:50:19.329Z,97185.28
2023-09-06T20:52:20.874Z,97184.44
2023-09-06T20:54:22.615Z,97194.06
2023-09-06T20:56:24.236Z,97189.06
2023-09-06T20:58:26.367Z,97193.69
2023-09-06T21:00:28.075Z,97189.75
2023-09-06T21:02:30.217Z,97191.56
2023-09-06T21:04:32.095Z,97191.84
2023-09-06T21:06:34.056Z,97202.50
2023-09-06T21:08:35.725Z,97191.66
2023-09-06T21:10:37.333Z,97194.47
2023-09-06T21:12:38.838Z,97195.03
2023-09-06T21:14:40.504Z,97201.81
2023-09-06T21:16:42.012Z,97206.41
2023-09-06T21:18:43.683Z,97207.19
2023-09-06T21:20:45.487Z,97212.75
2023-09-06T21:22:47.124Z,97212.75
2023-09-06T21:24:48.695Z,97212.88
2023-09-06T21:26:50.798Z,97209.75
2023-09-06T21:28:52.564Z,97211.41
2023-09-06T21:30:54.087Z,97212.56
2023-09-06T21:32:56.798Z,97214.41
2023-09-06T21:34:58.689Z,97207.44
2023-09-06T21:37:00.292Z,97220.09
2023-09-06T21:39:01.906Z,97214.09
2023-09-06T21:41:03.892Z,97214.41
2023-09-06T21:43:17.056Z,97211.88
2023-09-06T21:45:20.337Z,97223.44
2023-09-06T21:47:22.060Z,97217.88
2023-09-06T21:49:23.726Z,97224.50
2023-09-06T21:51:25.229Z,97214.16
2023-09-06T21:53:26.813Z,97222.69
2023-09-06T21:55:28.523Z,97218.41
2023-09-06T21:57:30.223Z,97222.34
2023-09-06T21:59:31.777Z,97223.56
2023-09-06T22:01:36.564Z,97223.88
2023-09-06T22:03:56.934Z,97227.50
2023-09-06T22:06:17.402Z,97222.28
2023-09-06T22:08:37.468Z,97221.00
2023-09-06T22:10:57.658Z,97225.50
2023-09-06T22:13:18.286Z,97222.41
2023-09-06T22:15:20.302Z,97222.19
2023-09-06T22:17:21.981Z,97223.41
2023-09-06T22:19:23.631Z,97219.16
2023-09-06T22:21:25.230Z,97222.53
2023-09-06T22:23:26.758Z,97220.25
2023-09-06T22:25:28.707Z,97219.16
2023-09-06T22:27:30.348Z,97218.84
2023-09-06T22:29:32.544Z,97219.06
2023-09-06T22:31:35.917Z,97219.59
2023-09-06T22:33:37.758Z,97220.78
2023-09-06T22:35:39.364Z,97222.88
2023-09-06T22:37:42.833Z,97222.25
2023-09-06T22:39:44.387Z,97219.94
2023-09-06T22:41:46.345Z,97227.81
2023-09-06T22:43:48.007Z,97229.78
2023-09-06T22:45:51.196Z,97220.81
2023-09-06T22:47:52.889Z,97226.72
2023-09-06T22:49:55.488Z,97227.19
2023-09-06T22:51:57.348Z,97220.63
2023-09-06T22:53:58.954Z,97230.16
2023-09-06T22:56:00.614Z,97230.03
2023-09-06T22:58:03.475Z,97222.25
2023-09-06T23:00:08.512Z,97234.47
2023-09-06T23:02:10.076Z,97226.50
2023-09-06T23:04:12.218Z,97231.97
2023-09-06T23:06:17.294Z,97236.34
2023-09-06T23:08:19.723Z,97238.34
2023-09-06T23:10:24.319Z,97233.84
2023-09-06T23:12:28.250Z,97240.97
2023-09-06T23:14:29.994Z,97232.53
2023-09-06T23:16:32.194Z,97236.34
2023-09-06T23:18:36.521Z,97233.41
2023-09-06T23:20:43.148Z,97232.22
2023-09-06T23:22:45.407Z,97234.53
2023-09-06T23:24:49.401Z,97240.41
2023-09-06T23:26:59.518Z,97237.03
2023-09-06T23:29:07.129Z,97231.03
2023-09-06T23:31:11.650Z,97227.97
2023-09-06T23:33:21.332Z,97228.84
2023-09-06T23:35:23.487Z,97235.41
2023-09-06T23:37:26.546Z,97232.66
2023-09-06T23:39:29.089Z,97230.25
2023-09-06T23:41:31.276Z,97233.53
2023-09-06T23:43:33.024Z,97234.41
2023-09-06T23:45:47.026Z,97231.13
2023-09-06T23:47:56.225Z,97230.16
2023-09-06T23:49:57.776Z,97224.56
2023-09-06T23:51:59.714Z,97217.59
2023-09-06T23:54:01.495Z,97223.59
2023-09-06T23:56:04.739Z,97229.91
2023-09-06T23:58:06.427Z,97220.50
